Pt. Reyes RCA field Weather observations

Data are for 10 minute period ending at time listed.
 Day   Time   Solar   Ave.   Ave.  Ave.  Vector    Max.   Stn.   Total 
  of    of     Rad.   Air    Rel.  Wind   Wind     Wind   Baro. Precip.
Year   Day            Temp.  Hum.  Speed  Dir.     Gust   Pres.        
2016   (PST)   W/m2    F      %     mph   deg.      mph    mb.    in.  
-----------------------------------------------------------------------
  43   19:30    0.0    55   97.1    10    320.8    14.5   1019.0  0.00  
  43   19:40    0.0    56   97.1    14    315.7    19.1   1019.0  0.00  
  43   19:50    0.0    55   97.0    14    315.1    18.2   1019.0  0.00  
  43   20:00    0.0    55   97.1    16    320.8    22.9   1019.3  0.00  
  43   20:10    0.0    55   97.5    16    321.6    22.1   1019.3  0.00  
  43   20:20    0.0    55   97.8    15    329.0    19.1   1019.0  0.00  
  43   20:30    0.0    54   98.0    14    322.5    17.4   1019.3  0.00  
  43   20:40    0.0    54   98.1    14    323.1    17.8   1019.3  0.00  
  43   20:50    0.0    54   98.2    14    323.8    19.4   1019.3  0.00  
  43   21:00    0.0    54   98.3    12    326.7    16.8   1019.3  0.00  
  43   21:10    0.0    54   98.3    13    326.0    17.4   1019.6  0.00  
  43   21:20    0.0    54   98.4    14    326.0    17.6   1019.6  0.00  
  43   21:30    0.0    54   98.5    14    324.8    19.6   1019.6  0.00  
  43   21:40    0.0    54   98.5    15    323.2    20.1   1019.6  0.00  
  43   21:50    0.0    54   98.6    16    324.5    20.3   1019.6  0.00  
  43   22:00    0.0    53   98.6    13    329.9    18.4   1019.6  0.00  
  43   22:10    0.0    53   98.6    13    332.8    17.1   1019.6  0.00  
  43   22:20    0.0    53   98.7    14    325.1    19.5   1019.6  0.00  
  43   22:30    0.0    53   98.7    15    324.4    19.0   1019.6  0.00  
  43   22:40    0.0    53   98.7    16    323.0    22.7   1020.0  0.00  
  43   22:50    0.0    53   98.8    19    326.6    24.3   1020.0  0.00  
  43   23:00    0.0    53   98.8    21    328.2    27.6   1020.0  0.00  
  43   23:10    0.0    53   98.8    18    327.6    24.7   1020.0  0.00  
  43   23:20    0.0    53   98.8    19    323.2    23.3   1020.0  0.00  
  43   23:30    0.0    53   98.9    20    327.4    25.4   1020.0  0.00  
  43   23:40    0.0    52   98.9    17    325.9    22.7   1020.0  0.00  
  43   23:50    0.0    53   98.9    16    328.1    20.7   1020.0  0.00  
  44    0:00    0.0    53   98.9    13    326.9    18.0   1020.0  0.00  
  44    0:10    0.0    53   98.9    15    330.0    22.1   1020.0  0.00  
  44    0:20    0.0    53   98.9    13    335.7    16.7   1020.0  0.00  
  44    0:30    0.0    53   98.9    16    328.1    21.0   1020.0  0.00  
  44    0:40    0.0    53   98.8    15    331.5    21.3   1020.0  0.00  
  44    0:50    0.0    53   98.8    14    321.9    20.6   1020.0  0.00  
  44    1:00    0.0    53   98.8    16    323.1    21.9   1019.6  0.00  
  44    1:10    0.0    53   98.7    14    324.5    18.6   1019.6  0.00  
  44    1:20    0.0    53   98.6    13    324.0    17.5   1019.6  0.00  
  44    1:30    0.0    53   98.6    14    326.0    18.3   1019.6  0.00  
  44    1:40    0.0    53   98.5    12    332.7    17.0   1019.6  0.00  
  44    1:50    0.0    53   98.4     7    347.5    10.8   1020.0  0.00  
  44    2:00    0.0    53   98.3     9    336.0    11.0   1019.6  0.00  
  44    2:10    0.0    53   98.2     8    337.2    11.0   1019.6  0.00  
  44    2:20    0.0    52   98.1     7    339.0    11.0   1019.6  0.00  
  44    2:30    0.0    52   98.1     9    334.2    11.1   1020.0  0.00  
  44    2:40    0.0    52   98.0     9    332.3    12.1   1020.0  0.00  
  44    2:50    0.0    52   97.9     8    334.7    11.6   1020.0  0.00  
  44    3:00    0.0    52   97.9     8    338.2    10.6   1020.0  0.00  
  44    3:10    0.0    52   97.9     8    334.2    12.0   1020.0  0.00  
  44    3:20    0.0    52   97.9    11    323.7    13.7   1020.0  0.00  
  44    3:30    0.0    52   97.7    11    327.9    14.1   1020.3  0.00  
  44    3:40    0.0    52   97.6    11    333.9    13.9   1020.3  0.00  
  44    3:50    0.0    52   97.5    11    329.8    13.4   1020.3  0.00  
  44    4:00    0.0    52   97.4    11    324.1    12.9   1020.0  0.00  
  44    4:10    0.0    52   97.4    10    321.1    12.4   1020.0  0.00  
  44    4:20    0.0    52   97.4    11    328.5    14.3   1020.0  0.00  
  44    4:30    0.0    52   97.2     8    338.4    11.3   1020.0  0.00  
  44    4:40    0.0    51   97.1     6      0.9     7.9   1020.0  0.00  
  44    4:50    0.0    51   97.2     4     28.9     5.8   1019.6  0.00  
  44    5:00    0.0    51   97.4     3     43.7     4.6   1019.6  0.00  
  44    5:10    0.0    49   97.0     2      2.4     3.5   1019.6  0.00  
  44    5:20    0.0    49   97.3     4    332.5     4.7   1020.0  0.00  
  44    5:30    0.0    49   97.6     5    329.9     5.8   1020.0  0.00  
  44    5:40    0.0    48   97.7     5    336.6     5.7   1020.0  0.00  
  44    5:50    0.0    48   97.8     5    332.9     5.5   1020.3  0.00  
  44    6:00    0.0    49   97.9     4    335.4     4.7   1020.3  0.00  
  44    6:10    0.0    49   97.8     4    349.2     4.8   1020.7  0.00  
  44    6:20    0.0    48   97.9     5    348.3     6.6   1020.3  0.00  
  44    6:30    0.0    47   98.1     6    339.2     8.8   1020.7  0.00  
  44    6:40    0.0    46   98.3     8    335.0    10.5   1020.7  0.00  
  44    6:50    0.0    48   98.4     7    344.6     9.1   1020.7  0.00  
  44    7:00    1.0    48   98.4     5     13.4     6.4   1020.7  0.00  
  44    7:10    4.0    48   98.3     6     19.3     7.1   1020.7  0.01  
  44    7:20    9.0    47   98.2     5      9.5     7.5   1020.7  0.00  
  44    7:30   31.0    47   98.3     4     14.9     4.8   1020.7  0.00  
  44    7:40   54.0    47   98.2     3      5.7     3.9   1021.0  0.00  
  44    7:50   86.0    47   98.2     4     18.6     5.5   1021.0  0.00  
  44    8:00  115.0    49   98.2     6     33.2     7.3   1021.0  0.00  
  44    8:10  144.0    51   98.1     5     27.9     6.5   1021.0  0.00  
  44    8:20  172.0    52   97.9     3     19.7     5.0   1021.3  0.00  
  44    8:30  202.0    52   97.3     4    326.5     5.3   1021.3  0.00  
  44    8:40  230.0    53   96.0     5    326.5     6.4   1021.7  0.00  
  44    8:50  258.0    53   94.8     4    338.1     4.8   1021.7  0.00  
  44    9:00  281.0    54   94.0     5    313.6     5.8   1021.7  0.00  
  44    9:10  309.0    54   93.1     5    320.0     6.1   1022.0  0.00  
  44    9:20  334.0    55   92.3     6    327.3     7.5   1022.0  0.00  
  44    9:30  358.0    55   91.1     5    342.3     6.7   1022.0  0.00  
  44    9:40  382.0    56   90.6     5    338.3     7.8   1022.4  0.00  
  44    9:50  402.0    56   88.1     7    310.1     9.3   1022.4  0.00  
  44   10:00  429.0    56   84.4     6    301.6     8.4   1022.4  0.00  
  44   10:10  450.0    56   83.2     6    299.5     7.4   1022.4  0.00  
  44   10:20  471.0    56   83.6     6    299.0     7.9   1022.4  0.00  
  44   10:30  488.0    57   82.8     6    310.3     8.1   1022.4  0.00  
  44   10:40  507.0    57   82.1     6    304.0     9.5   1022.4  0.00  
  44   10:50  524.0    57   80.9     6    300.0     7.5   1022.0  0.00  
  44   11:00  538.0    57   80.0     8    283.8    11.4   1022.0  0.00  
  44   11:10  550.0    57   81.4    12    296.3    14.3   1022.4  0.00  
  44   11:20  553.0    57   82.3    12    302.0    15.1   1022.7  0.00  
  44   11:30  572.0    57   80.4    11    306.6    14.7   1022.7  0.00  
  44   11:40  583.0    57   80.3    10    309.5    12.7   1022.4  0.00  
  44   11:50  589.0    57   80.8    10    311.9    13.2   1022.4  0.00  
  44   12:00  596.0    57   80.1     9    314.4    12.6   1022.0  0.00  
  44   12:10  600.0    57   79.7     9    308.3    11.6   1022.0  0.00  
  44   12:20  603.0    57   78.1     9    312.9    11.8   1021.7  0.00  
  44   12:30  603.0    58   75.3    10    314.6    13.1   1021.7  0.00  
  44   12:40  600.0    58   77.5    12    307.6    15.0   1021.3  0.00  
  44   12:50  598.0    57   80.0    13    310.3    17.1   1021.3  0.00  
  44   13:00  593.0    58   79.9    14    312.8    17.0   1021.3  0.00  
  44   13:10  588.0    58   78.9    16    316.8    20.8   1021.0  0.00  
  44   13:20  581.0    58   78.7    16    318.9    19.4   1021.0  0.00  
  44   13:30  573.0    58   77.9    16    319.7    20.1   1020.7  0.00  
  44   13:40  562.0    58   78.7    16    319.5    19.5   1020.7  0.00  
  44   13:50  549.0    58   79.0    16    322.6    21.2   1020.3  0.00  
  44   14:00  536.0    58   79.3    16    325.8    20.6   1020.3  0.00  
  44   14:10  521.0    58   79.7    15    321.3    17.9   1020.3  0.00  
  44   14:20  504.0    58   78.8    15    316.5    20.0   1020.7  0.00  
  44   14:30  486.0    58   79.5    16    318.6    20.7   1020.3  0.00  
  44   14:40  469.0    58   79.1    16    317.0    20.8   1020.3  0.00  
  44   14:50  439.0    58   79.2    17    321.4    20.7   1020.3  0.00  
  44   15:00  431.0    58   79.4    14    327.0    18.3   1020.0  0.00  
  44   15:10  404.0    57   80.1    13    327.3    16.6   1020.0  0.00  
  44   15:20  366.0    58   79.5    14    319.9    17.0   1020.3  0.00  
  44   15:30  365.0    58   77.5    15    322.6    21.0   1020.0  0.00  
  44   15:40  340.0    58   77.5    16    321.6    19.9   1020.0  0.00  
  44   15:50  315.0    57   78.0    16    324.8    19.6   1020.0  0.00  
  44   16:00  246.0    57   79.1    14    322.7    18.6   1020.0  0.00  
  44   16:10  209.0    57   79.7    15    326.3    19.6   1020.0  0.00  
  44   16:20  190.0    56   80.4    16    324.2    21.0   1020.3  0.00  
  44   16:30  202.0    56   79.6    14    329.0    20.1   1020.3  0.00  
  44   16:40  198.0    57   78.1    11    335.0    15.6   1020.0  0.00  
  44   16:50  161.0    57   75.3    12    330.0    19.6   1020.0  0.00  
  44   17:00  118.0    57   76.2    11    333.9    15.0   1020.0  0.00  
  44   17:10   58.0    56   76.4    11    338.9    15.2   1020.0  0.00  
  44   17:20   27.0    55   77.8    11    333.4    15.1   1020.3  0.00  
  44   17:30   35.0    56   77.4    13    332.8    17.7   1020.3  0.00  
  44   17:40   20.0    55   78.7    11    339.0    16.0   1020.3  0.00  
  44   17:50    7.0    55   79.8    12    337.3    17.1   1020.3  0.00  
  44   18:00    1.0    55   80.6    16    327.2    22.1   1020.7  0.00  
  44   18:10    0.0    55   82.1    18    323.5    22.4   1020.7  0.00  
  44   18:20    0.0    55   83.0    18    322.4    25.3   1020.7  0.00  
  44   18:30    0.0    54   83.0    19    322.6    24.7   1020.7  0.00  
  44   18:40    0.0    54   82.6    18    323.6    23.2   1020.7  0.00  
  44   18:50    0.0    54   82.9    15    327.1    19.8   1021.0  0.00  
  44   19:00    0.0    54   83.0    15    328.0    21.7   1021.3  0.00  
  44   19:10    0.0    54   82.4    16    330.1    23.7   1021.3  0.00  
  44   19:20    0.0    54   82.2    17    327.9    21.0   1021.3  0.00  

Return to Pt. Reyes graphs page.


Western Regional Climate Center,wrcc@dri.edu